createdAt,value
2018-02-25T00:00:58.915Z,3.42
2018-02-25T00:03:26.493Z,3.40
2018-02-25T00:05:54.046Z,3.62
2018-02-25T00:08:22.279Z,4.05
2018-02-25T00:10:49.740Z,3.33
2018-02-25T00:13:17.209Z,3.40
2018-02-25T00:15:44.672Z,4.22
2018-02-25T00:18:12.249Z,3.78
2018-02-25T00:20:39.776Z,3.28
2018-02-25T00:23:07.244Z,4.70
2018-02-25T00:25:34.701Z,3.75
2018-02-25T00:28:02.178Z,4.35
2018-02-25T00:30:29.734Z,4.00
2018-02-25T00:32:57.284Z,3.45
2018-02-25T00:35:24.755Z,3.85
2018-02-25T00:37:52.245Z,4.30
2018-02-25T00:40:19.759Z,3.62
2018-02-25T00:42:47.217Z,3.60
2018-02-25T00:45:14.684Z,3.55
2018-02-25T00:47:43.659Z,3.58
2018-02-25T00:50:11.229Z,3.78
2018-02-25T00:52:38.781Z,4.10
2018-02-25T00:55:06.255Z,3.50
2018-02-25T00:57:33.723Z,3.65
2018-02-25T01:00:01.944Z,4.47
2018-02-25T01:02:29.406Z,3.05
2018-02-25T01:04:56.887Z,4.03
2018-02-25T01:07:24.349Z,3.20
2018-02-25T01:09:51.905Z,3.75
2018-02-25T01:12:20.874Z,3.50
2018-02-25T01:14:48.325Z,3.67
2018-02-25T01:17:15.795Z,3.17
2018-02-25T01:19:43.265Z,4.68
2018-02-25T01:22:10.741Z,3.65
2018-02-25T01:24:38.959Z,3.30
2018-02-25T01:27:06.429Z,4.55
2018-02-25T01:29:33.880Z,3.55
2018-02-25T01:32:01.350Z,2.97
2018-02-25T01:34:28.825Z,3.90
2018-02-25T01:36:56.291Z,3.67
2018-02-25T01:39:24.572Z,3.60
2018-02-25T01:41:52.800Z,3.17
2018-02-25T01:44:20.261Z,4.07
2018-02-25T01:46:47.765Z,5.10
2018-02-25T01:49:15.989Z,3.85
2018-02-25T01:51:43.498Z,4.45
2018-02-25T01:54:11.752Z,4.00
2018-02-25T01:56:39.228Z,4.75
2018-02-25T01:59:07.479Z,4.35
2018-02-25T02:01:34.933Z,4.70
2018-02-25T02:04:02.404Z,4.80
2018-02-25T02:06:30.645Z,4.10
2018-02-25T02:08:58.133Z,3.72
2018-02-25T02:11:27.180Z,4.25
2018-02-25T02:13:54.646Z,3.85
2018-02-25T02:16:22.108Z,3.87
2018-02-25T02:18:49.562Z,3.45
2018-02-25T02:21:17.056Z,4.93
2018-02-25T02:23:44.609Z,3.87
2018-02-25T02:26:12.069Z,3.90
2018-02-25T02:28:39.627Z,4.22
2018-02-25T02:31:07.089Z,3.97
2018-02-25T02:33:34.551Z,4.55
2018-02-25T02:36:02.813Z,5.18
2018-02-25T02:38:30.371Z,4.90
2018-02-25T02:40:57.928Z,4.53
2018-02-25T02:43:25.406Z,4.10
2018-02-25T02:45:53.684Z,3.95
2018-02-25T02:48:21.942Z,3.92
2018-02-25T02:50:49.412Z,4.47
2018-02-25T02:53:17.645Z,4.80
2018-02-25T02:55:45.097Z,3.50
2018-02-25T02:58:12.577Z,3.17
2018-02-25T03:00:40.151Z,3.33
2018-02-25T03:03:07.693Z,4.25
2018-02-25T03:05:35.253Z,3.83
2018-02-25T03:08:02.720Z,4.12
2018-02-25T03:10:30.190Z,3.17
2018-02-25T03:12:57.652Z,4.07
2018-02-25T03:15:25.904Z,3.62
2018-02-25T03:17:53.379Z,4.03
2018-02-25T03:20:21.605Z,4.03
2018-02-25T03:22:49.196Z,3.22
2018-02-25T03:25:16.652Z,3.83
2018-02-25T03:27:44.121Z,4.32
2018-02-25T03:30:11.674Z,3.60
2018-02-25T03:32:39.129Z,3.92
2018-02-25T03:35:08.110Z,4.30
2018-02-25T03:37:35.570Z,3.70
2018-02-25T03:40:03.203Z,4.50
2018-02-25T03:42:30.660Z,4.00
2018-02-25T03:44:58.140Z,3.80
2018-02-25T03:47:25.608Z,3.35
2018-02-25T03:49:53.077Z,3.87
2018-02-25T03:52:21.305Z,4.10
2018-02-25T03:54:48.778Z,5.10
2018-02-25T03:57:16.252Z,4.25
2018-02-25T03:59:45.263Z,3.87
2018-02-25T04:02:13.484Z,4.85
2018-02-25T04:04:40.953Z,4.35
2018-02-25T04:07:08.420Z,3.83
2018-02-25T04:09:35.890Z,4.60
2018-02-25T04:12:03.366Z,4.30
2018-02-25T04:14:31.584Z,4.53
2018-02-25T04:16:59.085Z,4.20
2018-02-25T04:19:26.642Z,3.67
2018-02-25T04:21:54.116Z,4.22
2018-02-25T04:24:22.344Z,4.60
2018-02-25T04:26:49.831Z,4.43
2018-02-25T04:29:17.381Z,4.25
2018-02-25T04:31:44.849Z,4.15
2018-02-25T04:34:13.088Z,4.85
2018-02-25T04:36:40.548Z,4.50
2018-02-25T04:39:08.017Z,4.37
2018-02-25T04:41:35.480Z,4.97
2018-02-25T04:44:02.940Z,4.20
2018-02-25T04:46:30.434Z,5.43
2018-02-25T04:48:57.910Z,5.20
2018-02-25T04:51:25.365Z,5.07
2018-02-25T04:53:52.841Z,5.28
2018-02-25T04:56:20.303Z,4.85
2018-02-25T04:58:47.778Z,5.15
2018-02-25T05:01:15.243Z,5.15
2018-02-25T05:03:42.787Z,3.95
2018-02-25T05:06:10.491Z,5.37
2018-02-25T05:08:38.120Z,5.20
2018-02-25T05:11:05.589Z,5.55
2018-02-25T05:13:33.911Z,4.90
2018-02-25T05:16:01.374Z,5.57
2018-02-25T05:18:28.857Z,4.70
2018-02-25T05:20:56.335Z,5.78
2018-02-25T05:23:23.884Z,5.95
2018-02-25T05:25:51.382Z,5.65
2018-02-25T05:28:18.901Z,9.90
2018-02-25T05:30:46.369Z,7.62
2018-02-25T05:33:14.592Z,6.35
2018-02-25T05:35:42.072Z,5.18
2018-02-25T05:38:09.533Z,5.18
2018-02-25T05:40:37.005Z,5.05
2018-02-25T05:43:04.560Z,6.43
2018-02-25T05:45:32.017Z,5.93
2018-02-25T05:47:59.576Z,4.97
2018-02-25T05:50:27.133Z,5.05
2018-02-25T05:52:54.715Z,4.20
2018-02-25T05:55:22.954Z,4.45
2018-02-25T05:57:50.416Z,4.78
2018-02-25T06:00:17.985Z,5.30
2018-02-25T06:02:45.446Z,5.60
2018-02-25T06:05:12.957Z,4.35
2018-02-25T06:07:40.412Z,4.50
2018-02-25T06:10:07.897Z,4.93
2018-02-25T06:12:35.352Z,5.05
2018-02-25T06:15:02.816Z,5.10
2018-02-25T06:17:30.340Z,4.47
2018-02-25T06:19:57.797Z,5.93
2018-02-25T06:22:25.298Z,4.53
2018-02-25T06:24:52.851Z,4.95
2018-02-25T06:27:20.369Z,5.35
2018-02-25T06:29:47.824Z,5.35
2018-02-25T06:32:15.292Z,4.70
2018-02-25T06:34:43.293Z,4.40
2018-02-25T06:37:10.854Z,4.85
2018-02-25T06:39:38.418Z,5.35
2018-02-25T06:42:05.896Z,5.32
2018-02-25T06:44:34.146Z,5.97
2018-02-25T06:47:01.614Z,5.22
2018-02-25T06:49:29.117Z,5.32
2018-02-25T06:51:56.616Z,5.22
2018-02-25T06:54:24.094Z,6.10
2018-02-25T06:56:52.328Z,5.05
2018-02-25T06:59:19.905Z,5.00
2018-02-25T07:01:47.364Z,5.82
2018-02-25T07:04:14.929Z,6.00
2018-02-25T07:06:42.392Z,5.43
2018-02-25T07:09:09.861Z,5.75
2018-02-25T07:11:38.111Z,5.87
2018-02-25T07:14:05.576Z,4.82
2018-02-25T07:16:33.910Z,5.93
2018-02-25T07:19:01.374Z,5.40
2018-02-25T07:21:28.845Z,6.37
2018-02-25T07:23:56.324Z,5.65
2018-02-25T07:26:23.784Z,5.72
2018-02-25T07:28:52.036Z,4.80
2018-02-25T07:31:19.505Z,6.50
2018-02-25T07:33:46.979Z,5.50
2018-02-25T07:36:15.237Z,5.70
2018-02-25T07:38:42.700Z,4.50
2018-02-25T07:41:10.932Z,4.68
2018-02-25T07:43:38.414Z,5.65
2018-02-25T07:46:05.872Z,5.20
2018-02-25T07:48:33.341Z,5.60
2018-02-25T07:51:00.912Z,5.22
2018-02-25T07:53:29.173Z,5.03
2018-02-25T07:55:57.445Z,5.70
2018-02-25T07:58:24.876Z,5.93
2018-02-25T08:00:52.353Z,4.65
2018-02-25T08:03:19.816Z,5.03
2018-02-25T08:05:47.336Z,3.95
2018-02-25T08:08:14.805Z,3.97
2018-02-25T08:10:42.268Z,4.10
2018-02-25T08:13:09.729Z,3.28
2018-02-25T08:15:37.201Z,3.50
2018-02-25T08:18:04.668Z,3.85
2018-02-25T08:20:32.143Z,3.37
2018-02-25T08:23:00.389Z,3.50
2018-02-25T08:25:29.444Z,3.47
2018-02-25T08:27:56.971Z,4.18
2018-02-25T08:30:25.233Z,2.50
2018-02-25T08:32:53.465Z,3.00
2018-02-25T08:35:20.933Z,2.95
2018-02-25T08:37:48.409Z,2.78
2018-02-25T08:40:17.373Z,3.17
2018-02-25T08:42:44.853Z,3.25
2018-02-25T08:45:12.329Z,3.78
2018-02-25T08:47:40.589Z,3.53
2018-02-25T08:50:08.854Z,3.95
2018-02-25T08:52:36.270Z,3.20
2018-02-25T08:55:03.773Z,3.03
2018-02-25T08:57:31.245Z,3.55
2018-02-25T08:59:58.701Z,3.40
2018-02-25T09:02:26.180Z,3.50
2018-02-25T09:04:54.393Z,3.75
2018-02-25T09:07:21.881Z,3.60
2018-02-25T09:09:49.336Z,2.92
2018-02-25T09:12:16.790Z,4.07
2018-02-25T09:14:44.247Z,4.00
2018-02-25T09:17:11.705Z,2.90
2018-02-25T09:19:39.164Z,4.40
2018-02-25T09:22:06.619Z,3.87
2018-02-25T09:24:35.641Z,3.45
2018-02-25T09:27:03.159Z,4.03
2018-02-25T09:29:30.629Z,3.90
2018-02-25T09:31:58.186Z,3.45
2018-02-25T09:34:25.753Z,5.30
2018-02-25T09:36:53.305Z,3.50
2018-02-25T09:39:20.800Z,3.60
2018-02-25T09:41:48.278Z,3.08
2018-02-25T09:44:15.735Z,3.08
2018-02-25T09:46:43.237Z,3.10
2018-02-25T09:49:10.705Z,2.83
2018-02-25T09:51:38.934Z,2.80
2018-02-25T09:54:06.401Z,3.10
2018-02-25T09:56:33.875Z,3.03
2018-02-25T09:59:01.345Z,2.75
2018-02-25T10:01:28.808Z,2.70
2018-02-25T10:03:57.063Z,3.35
2018-02-25T10:06:24.521Z,3.40
2018-02-25T10:08:51.976Z,2.62
2018-02-25T10:11:19.482Z,3.22
2018-02-25T10:13:46.940Z,3.08
2018-02-25T10:16:14.424Z,2.92
2018-02-25T10:18:41.909Z,2.80
2018-02-25T10:21:09.394Z,3.00
2018-02-25T10:23:37.621Z,2.95
2018-02-25T10:26:05.152Z,3.37
2018-02-25T10:28:32.662Z,3.05
2018-02-25T10:31:00.124Z,2.40
2018-02-25T10:33:28.397Z,2.80
2018-02-25T10:35:55.956Z,3.05
2018-02-25T10:38:23.497Z,3.10
2018-02-25T10:40:51.052Z,3.53
2018-02-25T10:43:18.637Z,2.60
2018-02-25T10:45:46.857Z,3.60
2018-02-25T10:48:14.309Z,2.65
2018-02-25T10:50:41.768Z,2.65
2018-02-25T10:53:09.360Z,2.90
2018-02-25T10:55:36.936Z,2.80
2018-02-25T10:58:04.426Z,3.00
2018-02-25T11:00:36.719Z,3.92
2018-02-25T11:03:04.182Z,2.40
2018-02-25T11:05:31.674Z,2.85
2018-02-25T11:07:59.132Z,4.00
2018-02-25T11:10:28.282Z,3.08
2018-02-25T11:12:55.752Z,3.57
2018-02-25T11:15:23.229Z,3.20
2018-02-25T11:17:50.693Z,3.17
2018-02-25T11:20:18.254Z,3.30
2018-02-25T11:22:45.712Z,3.10
2018-02-25T11:25:13.260Z,3.10
2018-02-25T11:27:41.544Z,3.40
2018-02-25T11:30:09.036Z,3.50
2018-02-25T11:32:36.557Z,3.20
2018-02-25T11:35:04.013Z,3.20
2018-02-25T11:37:31.510Z,3.63
2018-02-25T11:39:58.977Z,3.20
2018-02-25T11:42:26.505Z,3.00
2018-02-25T11:44:53.935Z,4.40
2018-02-25T11:47:21.405Z,3.50
2018-02-25T11:49:48.862Z,3.80
2018-02-25T11:52:16.414Z,3.67
2018-02-25T11:54:43.969Z,3.20
2018-02-25T11:57:11.497Z,2.83
2018-02-25T11:59:38.977Z,3.00
2018-02-25T12:02:06.447Z,3.20
2018-02-25T12:04:35.413Z,3.83
2018-02-25T12:07:02.880Z,3.50
2018-02-25T12:09:30.340Z,3.70
2018-02-25T12:11:57.907Z,3.03
2018-02-25T12:14:25.550Z,3.07
2018-02-25T12:16:53.024Z,3.27
2018-02-25T12:19:20.585Z,3.47
2018-02-25T12:21:48.135Z,3.10
2018-02-25T12:24:15.697Z,2.80
2018-02-25T12:26:43.164Z,2.83
2018-02-25T12:29:10.722Z,3.10
2018-02-25T12:31:38.188Z,3.10
2018-02-25T12:34:05.645Z,3.15
2018-02-25T12:36:33.897Z,3.25
2018-02-25T12:39:01.460Z,2.95
2018-02-25T12:41:28.929Z,3.20
2018-02-25T12:43:56.479Z,3.10
2018-02-25T12:46:24.036Z,3.10
2018-02-25T12:48:51.502Z,2.75
2018-02-25T12:51:20.464Z,2.80
2018-02-25T12:53:47.933Z,2.50
2018-02-25T12:56:15.397Z,2.67
2018-02-25T12:58:42.848Z,3.47
2018-02-25T13:01:10.311Z,2.40
2018-02-25T13:03:39.272Z,3.00
2018-02-25T13:06:06.733Z,3.03
2018-02-25T13:08:34.277Z,2.55
2018-02-25T13:11:01.858Z,2.65
2018-02-25T13:13:29.317Z,2.42
2018-02-25T13:15:56.786Z,2.90
2018-02-25T13:18:25.762Z,2.60
2018-02-25T13:20:53.223Z,2.37
2018-02-25T13:23:20.684Z,3.20
2018-02-25T13:25:48.256Z,2.45
2018-02-25T13:28:17.225Z,2.75
2018-02-25T13:30:44.699Z,2.65
2018-02-25T13:33:12.157Z,2.85
2018-02-25T13:35:39.787Z,2.85
2018-02-25T13:38:07.249Z,2.95
2018-02-25T13:40:34.701Z,2.83
2018-02-25T13:43:02.168Z,2.65
2018-02-25T13:45:29.643Z,2.35
2018-02-25T13:47:57.104Z,2.90
2018-02-25T13:50:24.661Z,2.72
2018-02-25T13:52:52.124Z,3.10
2018-02-25T13:55:19.584Z,2.58
2018-02-25T13:57:47.061Z,3.03
2018-02-25T14:00:15.367Z,3.00
2018-02-25T14:02:42.865Z,3.75
2018-02-25T14:05:10.318Z,2.80
2018-02-25T14:07:37.778Z,3.00
2018-02-25T14:10:05.250Z,2.95
2018-02-25T14:12:34.236Z,1.95
2018-02-25T14:15:01.692Z,1.90
2018-02-25T14:17:29.345Z,2.33
2018-02-25T14:19:58.319Z,1.75
2018-02-25T14:22:25.856Z,2.25
2018-02-25T14:24:53.314Z,1.92
2018-02-25T14:27:20.788Z,2.55
2018-02-25T14:29:48.248Z,2.05
2018-02-25T14:32:15.724Z,2.33
2018-02-25T14:34:43.590Z,2.40
2018-02-25T14:37:11.811Z,2.70
2018-02-25T14:39:39.281Z,3.00
2018-02-25T14:42:06.772Z,2.90
2018-02-25T14:44:34.236Z,1.70
2018-02-25T14:47:01.802Z,2.10
2018-02-25T14:49:29.272Z,2.42
2018-02-25T14:51:57.524Z,2.20
2018-02-25T14:54:25.026Z,2.40
2018-02-25T14:56:52.481Z,2.90
2018-02-25T14:59:19.943Z,2.42
2018-02-25T15:01:47.424Z,2.47
2018-02-25T15:04:14.881Z,1.75
2018-02-25T15:06:42.360Z,2.58
2018-02-25T15:09:09.817Z,1.98
2018-02-25T15:14:11.289Z,1.90
2018-02-25T15:16:40.271Z,2.50
2018-02-25T15:19:07.720Z,2.53
2018-02-25T15:24:13.709Z,2.42
2018-02-25T15:26:41.173Z,2.30
2018-02-25T15:29:08.636Z,2.55
2018-02-25T15:31:37.604Z,2.20
2018-02-25T15:34:05.070Z,2.33
2018-02-25T15:36:32.535Z,1.92
2018-02-25T15:39:00.152Z,2.35
2018-02-25T15:41:28.364Z,2.30
2018-02-25T15:43:56.199Z,2.30
2018-02-25T15:46:23.802Z,2.28
2018-02-25T15:48:51.253Z,2.40
2018-02-25T15:51:18.805Z,2.70
2018-02-25T15:53:46.361Z,2.20
2018-02-25T15:56:13.813Z,1.90
2018-02-25T15:58:41.273Z,2.45
2018-02-25T16:01:08.742Z,2.12
2018-02-25T16:03:36.284Z,2.40
2018-02-25T16:06:03.740Z,2.65
2018-02-25T16:08:31.200Z,2.53
2018-02-25T16:10:58.713Z,2.50
2018-02-25T16:13:26.175Z,2.12
2018-02-25T16:15:53.673Z,2.17
2018-02-25T16:18:21.133Z,2.45
2018-02-25T16:20:48.641Z,2.55
2018-02-25T16:23:16.117Z,3.05
2018-02-25T16:25:43.604Z,2.67
2018-02-25T16:28:11.060Z,2.47
2018-02-25T16:30:38.518Z,2.08
2018-02-25T16:33:05.984Z,2.90
2018-02-25T16:35:33.538Z,2.22
2018-02-25T16:38:01.006Z,2.70
2018-02-25T16:40:29.251Z,2.72
2018-02-25T16:42:56.713Z,2.90
2018-02-25T16:45:24.175Z,2.40
2018-02-25T16:47:51.640Z,2.75
2018-02-25T16:50:19.879Z,2.53
2018-02-25T16:52:47.354Z,3.05
2018-02-25T16:55:14.825Z,2.20
2018-02-25T16:57:43.059Z,2.95
2018-02-25T17:00:10.547Z,2.37
2018-02-25T17:02:38.004Z,3.05
2018-02-25T17:05:05.493Z,3.00
2018-02-25T17:07:33.749Z,2.95
2018-02-25T17:10:01.210Z,2.87
2018-02-25T17:12:30.409Z,3.47
2018-02-25T17:14:57.889Z,3.15
2018-02-25T17:17:25.346Z,4.03
2018-02-25T17:19:52.801Z,2.72
2018-02-25T17:22:21.035Z,3.00
2018-02-25T17:24:48.495Z,3.15
2018-02-25T17:27:16.840Z,3.20
2018-02-25T17:29:44.297Z,2.70
2018-02-25T17:32:11.788Z,3.40
2018-02-25T17:34:39.246Z,3.45
2018-02-25T17:37:06.804Z,2.67
2018-02-25T17:39:34.321Z,2.87
2018-02-25T17:42:01.810Z,2.90
2018-02-25T17:44:29.336Z,3.80
2018-02-25T17:46:56.790Z,3.62
2018-02-25T17:49:24.249Z,3.70
2018-02-25T17:51:51.702Z,3.67
2018-02-25T17:54:19.177Z,5.18
2018-02-25T17:56:46.648Z,4.05
2018-02-25T17:59:14.177Z,4.00
2018-02-25T18:01:41.633Z,3.60
2018-02-25T18:04:09.093Z,3.62
2018-02-25T18:06:36.653Z,4.03
2018-02-25T18:09:04.105Z,3.92
2018-02-25T18:11:31.554Z,3.75
2018-02-25T18:13:59.065Z,4.40
2018-02-25T18:16:28.113Z,3.65
2018-02-25T18:18:55.672Z,4.93
2018-02-25T18:21:23.231Z,4.80
2018-02-25T18:23:50.709Z,4.60
2018-02-25T18:26:18.198Z,6.12
2018-02-25T18:28:46.421Z,5.05
2018-02-25T18:31:13.920Z,5.62
2018-02-25T18:33:41.484Z,6.20
2018-02-25T18:36:08.968Z,6.30
2018-02-25T18:38:37.208Z,6.43
2018-02-25T18:41:04.784Z,5.70
2018-02-25T18:43:32.248Z,5.10
2018-02-25T18:46:00.483Z,6.00
2018-02-25T18:48:27.956Z,6.75
2018-02-25T18:50:55.420Z,6.25
2018-02-25T18:53:22.897Z,7.45
2018-02-25T18:55:51.147Z,7.45
2018-02-25T18:58:18.627Z,6.62
2018-02-25T19:00:46.849Z,6.35
2018-02-25T19:03:14.316Z,6.50
2018-02-25T19:05:41.801Z,7.15
2018-02-25T19:08:09.270Z,6.70
2018-02-25T19:10:37.537Z,7.18
2018-02-25T19:13:05.098Z,6.53
2018-02-25T19:15:32.558Z,7.03
2018-02-25T19:18:00.797Z,6.65
2018-02-25T19:20:28.289Z,7.25
2018-02-25T19:22:55.840Z,5.62
2018-02-25T19:25:23.348Z,6.30
2018-02-25T19:27:50.812Z,7.65
2018-02-25T19:30:18.276Z,6.82
2018-02-25T19:32:45.773Z,7.68
2018-02-25T19:35:13.257Z,6.05
2018-02-25T19:37:46.371Z,6.20
2018-02-25T19:40:13.825Z,7.32
2018-02-25T19:42:41.296Z,7.40
2018-02-25T19:45:08.772Z,7.85
2018-02-25T19:47:36.236Z,6.22
2018-02-25T19:50:03.704Z,7.37
2018-02-25T19:52:31.968Z,7.28
2018-02-25T19:54:59.438Z,6.62
2018-02-25T19:57:27.665Z,8.02
2018-02-25T19:59:55.169Z,7.05
2018-02-25T20:02:23.488Z,6.93
2018-02-25T20:04:51.284Z,6.80
2018-02-25T20:07:18.758Z,6.35
2018-02-25T20:09:46.224Z,7.35
2018-02-25T20:12:14.464Z,7.28
2018-02-25T20:14:41.938Z,8.07
2018-02-25T20:17:09.434Z,7.85
2018-02-25T20:19:37.658Z,7.55
2018-02-25T20:22:05.136Z,7.10
2018-02-25T20:24:32.596Z,7.45
2018-02-25T20:27:00.056Z,8.05
2018-02-25T20:29:27.517Z,7.55
2018-02-25T20:31:55.760Z,7.95
2018-02-25T20:34:23.230Z,8.15
2018-02-25T20:36:50.693Z,8.38
2018-02-25T20:39:18.164Z,7.45
2018-02-25T20:41:46.433Z,6.75
2018-02-25T20:44:14.704Z,6.68
2018-02-25T20:46:42.181Z,8.25
2018-02-25T20:49:10.422Z,7.50
2018-02-25T20:51:37.912Z,7.62
2018-02-25T20:54:06.159Z,7.78
2018-02-25T20:56:33.623Z,8.07
2018-02-25T20:59:01.182Z,7.60
2018-02-25T21:01:29.465Z,6.78
2018-02-25T21:03:57.736Z,6.82
2018-02-25T21:06:25.290Z,6.35
2018-02-25T21:08:52.756Z,6.90
2018-02-25T21:11:21.023Z,7.18
2018-02-25T21:13:49.271Z,7.10
2018-02-25T21:16:16.749Z,6.78
2018-02-25T21:18:44.990Z,7.30
2018-02-25T21:21:12.542Z,7.87
2018-02-25T21:23:40.013Z,7.40
2018-02-25T21:26:07.469Z,7.10
2018-02-25T21:28:34.933Z,8.70
2018-02-25T21:31:02.393Z,7.30
2018-02-25T21:33:29.933Z,6.87
2018-02-25T21:35:57.400Z,9.60
2018-02-25T21:38:24.864Z,7.20
2018-02-25T21:40:52.332Z,7.85
2018-02-25T21:43:19.796Z,7.53
2018-02-25T21:45:48.789Z,7.80
2018-02-25T21:48:17.042Z,6.82
2018-02-25T21:50:44.513Z,8.70
2018-02-25T21:53:14.922Z,8.50
2018-02-25T21:55:48.066Z,8.13
2018-02-25T21:58:21.927Z,8.25
2018-02-25T22:00:55.133Z,8.27
2018-02-25T22:03:33.257Z,7.78
2018-02-25T22:06:01.507Z,8.93
2018-02-25T22:08:28.977Z,7.60
2018-02-25T22:10:56.445Z,8.60
2018-02-25T22:13:23.916Z,7.65
2018-02-25T22:15:52.145Z,7.93
2018-02-25T22:18:19.636Z,7.68
2018-02-25T22:20:47.859Z,8.40
2018-02-25T22:23:15.351Z,7.55
2018-02-25T22:25:42.817Z,8.23
2018-02-25T22:28:10.369Z,8.48
2018-02-25T22:30:37.920Z,7.72
2018-02-25T22:33:06.210Z,7.43
2018-02-25T22:35:33.688Z,8.45
2018-02-25T22:38:02.032Z,8.20
2018-02-25T22:40:29.492Z,7.87
2018-02-25T22:42:56.957Z,8.52
2018-02-25T22:45:24.500Z,10.13
2018-02-25T22:47:51.967Z,8.38
2018-02-25T22:50:20.210Z,8.70
2018-02-25T22:52:47.673Z,8.85
2018-02-25T22:55:15.148Z,10.10
2018-02-25T22:57:42.610Z,9.82
2018-02-25T23:00:10.168Z,9.70
2018-02-25T23:02:37.726Z,10.88
2018-02-25T23:05:06.709Z,11.12
2018-02-25T23:07:34.277Z,11.75
2018-02-25T23:10:01.784Z,11.55
2018-02-25T23:12:29.261Z,11.25
2018-02-25T23:14:56.729Z,11.48
2018-02-25T23:17:24.261Z,10.65
2018-02-25T23:19:51.769Z,9.80
2018-02-25T23:22:19.328Z,10.50
2018-02-25T23:24:46.790Z,10.82
2018-02-25T23:27:14.336Z,9.65
2018-02-25T23:29:41.801Z,10.73
2018-02-25T23:32:09.357Z,10.73
2018-02-25T23:34:37.592Z,10.35
2018-02-25T23:37:05.070Z,9.73
2018-02-25T23:39:32.553Z,9.63
2018-02-25T23:42:00.157Z,8.75
2018-02-25T23:44:27.661Z,8.57
2018-02-25T23:46:55.220Z,9.18
2018-02-25T23:49:22.777Z,9.43
2018-02-25T23:51:51.061Z,8.93
2018-02-25T23:54:19.296Z,8.43
2018-02-25T23:56:46.790Z,9.07
2018-02-25T23:59:14.353Z,8.18
